sensor_id;sensor_type;location;lat;lon;timestamp;P1;durP1;ratioP1;P2;durP2;ratioP2
31716;SDS011;18301;51.076;17.046;2022-12-08T00:02:19;15.05;;;7.80;;
31716;SDS011;18301;51.076;17.046;2022-12-08T00:07:21;14.15;;;7.50;;
31716;SDS011;18301;51.076;17.046;2022-12-08T00:12:41;16.50;;;9.18;;
31716;SDS011;18301;51.076;17.046;2022-12-08T00:17:42;18.70;;;9.98;;
31716;SDS011;18301;51.076;17.046;2022-12-08T00:22:44;18.83;;;9.70;;
31716;SDS011;18301;51.076;17.046;2022-12-08T00:27:45;18.88;;;9.43;;
31716;SDS011;18301;51.076;17.046;2022-12-08T00:32:47;16.55;;;8.43;;
31716;SDS011;18301;51.076;17.046;2022-12-08T00:37:48;17.95;;;8.88;;
31716;SDS011;18301;51.076;17.046;2022-12-08T00:42:50;18.30;;;8.60;;
31716;SDS011;18301;51.076;17.046;2022-12-08T00:47:51;15.32;;;7.85;;
31716;SDS011;18301;51.076;17.046;2022-12-08T00:52:53;13.07;;;7.75;;
31716;SDS011;18301;51.076;17.046;2022-12-08T00:57:55;13.10;;;6.90;;
31716;SDS011;18301;51.076;17.046;2022-12-08T01:02:56;15.38;;;8.25;;
31716;SDS011;18301;51.076;17.046;2022-12-08T01:07:58;19.80;;;8.82;;
31716;SDS011;18301;51.076;17.046;2022-12-08T01:12:59;19.35;;;8.95;;
31716;SDS011;18301;51.076;17.046;2022-12-08T01:18:01;15.13;;;7.38;;
31716;SDS011;18301;51.076;17.046;2022-12-08T01:23:03;13.77;;;6.82;;
31716;SDS011;18301;51.076;17.046;2022-12-08T01:28:04;12.35;;;6.57;;
31716;SDS011;18301;51.076;17.046;2022-12-08T01:33:06;11.80;;;6.03;;
31716;SDS011;18301;51.076;17.046;2022-12-08T01:38:07;13.00;;;7.68;;
31716;SDS011;18301;51.076;17.046;2022-12-08T01:43:16;13.82;;;7.85;;
31716;SDS011;18301;51.076;17.046;2022-12-08T01:48:21;16.63;;;9.27;;
31716;SDS011;18301;51.076;17.046;2022-12-08T01:53:27;19.35;;;9.38;;
31716;SDS011;18301;51.076;17.046;2022-12-08T01:58:36;14.18;;;7.82;;
31716;SDS011;18301;51.076;17.046;2022-12-08T02:03:57;14.20;;;8.32;;
31716;SDS011;18301;51.076;17.046;2022-12-08T02:09:01;13.40;;;8.15;;
31716;SDS011;18301;51.076;17.046;2022-12-08T02:14:06;15.95;;;7.47;;
31716;SDS011;18301;51.076;17.046;2022-12-08T02:24:54;14.43;;;7.75;;
31716;SDS011;18301;51.076;17.046;2022-12-08T02:35:42;14.00;;;7.90;;
31716;SDS011;18301;51.076;17.046;2022-12-08T02:45:57;16.95;;;8.85;;
31716;SDS011;18301;51.076;17.046;2022-12-08T02:51:02;20.08;;;10.27;;
31716;SDS011;18301;51.076;17.046;2022-12-08T02:56:20;17.88;;;10.32;;
31716;SDS011;18301;51.076;17.046;2022-12-08T03:01:31;17.65;;;9.90;;
31716;SDS011;18301;51.076;17.046;2022-12-08T03:06:40;17.70;;;8.45;;
31716;SDS011;18301;51.076;17.046;2022-12-08T03:11:55;18.58;;;10.02;;
31716;SDS011;18301;51.076;17.046;2022-12-08T03:17:06;16.80;;;9.48;;
31716;SDS011;18301;51.076;17.046;2022-12-08T03:22:08;16.90;;;9.15;;
31716;SDS011;18301;51.076;17.046;2022-12-08T03:27:23;16.73;;;9.15;;
31716;SDS011;18301;51.076;17.046;2022-12-08T03:32:34;14.95;;;9.10;;
31716;SDS011;18301;51.076;17.046;2022-12-08T03:37:48;11.90;;;7.00;;
31716;SDS011;18301;51.076;17.046;2022-12-08T03:42:49;12.40;;;6.95;;
31716;SDS011;18301;51.076;17.046;2022-12-08T03:47:51;10.43;;;6.35;;
31716;SDS011;18301;51.076;17.046;2022-12-08T03:52:52;11.75;;;6.28;;
31716;SDS011;18301;51.076;17.046;2022-12-08T03:57:54;10.38;;;5.93;;
31716;SDS011;18301;51.076;17.046;2022-12-08T04:02:56;10.63;;;6.13;;
31716;SDS011;18301;51.076;17.046;2022-12-08T04:07:57;11.50;;;6.97;;
31716;SDS011;18301;51.076;17.046;2022-12-08T04:12:59;12.68;;;6.97;;
31716;SDS011;18301;51.076;17.046;2022-12-08T04:18:01;10.98;;;6.50;;
31716;SDS011;18301;51.076;17.046;2022-12-08T04:23:02;13.20;;;6.93;;
31716;SDS011;18301;51.076;17.046;2022-12-08T04:28:04;11.77;;;6.90;;
31716;SDS011;18301;51.076;17.046;2022-12-08T04:33:06;13.95;;;7.60;;
31716;SDS011;18301;51.076;17.046;2022-12-08T04:38:07;10.20;;;6.60;;
31716;SDS011;18301;51.076;17.046;2022-12-08T04:43:09;10.88;;;7.18;;
31716;SDS011;18301;51.076;17.046;2022-12-08T04:48:11;13.43;;;7.70;;
31716;SDS011;18301;51.076;17.046;2022-12-08T04:53:13;14.27;;;7.40;;
31716;SDS011;18301;51.076;17.046;2022-12-08T04:58:16;13.57;;;7.70;;
31716;SDS011;18301;51.076;17.046;2022-12-08T05:03:19;12.70;;;7.43;;
31716;SDS011;18301;51.076;17.046;2022-12-08T05:08:28;10.98;;;7.07;;
31716;SDS011;18301;51.076;17.046;2022-12-08T05:13:30;12.73;;;7.65;;
31716;SDS011;18301;51.076;17.046;2022-12-08T05:18:33;11.55;;;7.25;;
31716;SDS011;18301;51.076;17.046;2022-12-08T05:23:35;11.18;;;7.03;;
31716;SDS011;18301;51.076;17.046;2022-12-08T05:28:36;10.88;;;6.88;;
31716;SDS011;18301;51.076;17.046;2022-12-08T05:33:43;14.48;;;7.25;;
31716;SDS011;18301;51.076;17.046;2022-12-08T05:38:45;13.52;;;7.57;;
31716;SDS011;18301;51.076;17.046;2022-12-08T05:43:47;14.35;;;7.95;;
31716;SDS011;18301;51.076;17.046;2022-12-08T05:48:49;13.07;;;7.97;;
31716;SDS011;18301;51.076;17.046;2022-12-08T05:53:51;11.63;;;7.95;;
31716;SDS011;18301;51.076;17.046;2022-12-08T05:58:53;16.05;;;8.68;;
31716;SDS011;18301;51.076;17.046;2022-12-08T06:03:57;16.90;;;8.57;;
31716;SDS011;18301;51.076;17.046;2022-12-08T06:09:01;14.30;;;8.07;;
31716;SDS011;18301;51.076;17.046;2022-12-08T06:14:04;14.18;;;7.88;;
31716;SDS011;18301;51.076;17.046;2022-12-08T06:19:05;14.48;;;8.50;;
31716;SDS011;18301;51.076;17.046;2022-12-08T06:24:07;13.10;;;7.65;;
31716;SDS011;18301;51.076;17.046;2022-12-08T06:29:09;14.05;;;7.15;;
31716;SDS011;18301;51.076;17.046;2022-12-08T06:34:11;15.57;;;8.57;;
31716;SDS011;18301;51.076;17.046;2022-12-08T06:39:12;16.75;;;9.13;;
31716;SDS011;18301;51.076;17.046;2022-12-08T06:44:14;19.83;;;10.73;;
31716;SDS011;18301;51.076;17.046;2022-12-08T06:49:15;17.67;;;10.00;;
31716;SDS011;18301;51.076;17.046;2022-12-08T06:54:17;26.52;;;13.13;;
31716;SDS011;18301;51.076;17.046;2022-12-08T06:59:19;25.08;;;13.10;;
31716;SDS011;18301;51.076;17.046;2022-12-08T07:04:21;22.48;;;11.50;;
31716;SDS011;18301;51.076;17.046;2022-12-08T07:09:22;22.02;;;11.05;;
31716;SDS011;18301;51.076;17.046;2022-12-08T07:14:24;16.48;;;9.23;;
31716;SDS011;18301;51.076;17.046;2022-12-08T07:19:25;19.55;;;10.40;;
31716;SDS011;18301;51.076;17.046;2022-12-08T07:24:27;19.27;;;10.48;;
31716;SDS011;18301;51.076;17.046;2022-12-08T07:29:28;16.50;;;9.45;;
31716;SDS011;18301;51.076;17.046;2022-12-08T07:34:30;16.95;;;8.85;;
31716;SDS011;18301;51.076;17.046;2022-12-08T07:39:32;14.68;;;7.82;;
31716;SDS011;18301;51.076;17.046;2022-12-08T07:44:33;26.00;;;13.13;;
31716;SDS011;18301;51.076;17.046;2022-12-08T07:49:35;19.10;;;11.23;;
31716;SDS011;18301;51.076;17.046;2022-12-08T07:54:36;15.73;;;9.80;;
31716;SDS011;18301;51.076;17.046;2022-12-08T07:59:38;15.45;;;9.27;;
31716;SDS011;18301;51.076;17.046;2022-12-08T08:04:39;12.95;;;8.52;;
31716;SDS011;18301;51.076;17.046;2022-12-08T08:09:41;16.33;;;8.75;;
31716;SDS011;18301;51.076;17.046;2022-12-08T08:14:43;15.88;;;9.15;;
31716;SDS011;18301;51.076;17.046;2022-12-08T08:19:45;12.05;;;7.30;;
31716;SDS011;18301;51.076;17.046;2022-12-08T08:24:46;11.57;;;7.30;;
31716;SDS011;18301;51.076;17.046;2022-12-08T08:29:48;13.27;;;8.27;;
31716;SDS011;18301;51.076;17.046;2022-12-08T08:34:50;11.43;;;7.60;;
31716;SDS011;18301;51.076;17.046;2022-12-08T08:39:52;12.40;;;6.65;;
31716;SDS011;18301;51.076;17.046;2022-12-08T08:44:53;17.58;;;8.40;;
31716;SDS011;18301;51.076;17.046;2022-12-08T08:49:55;14.80;;;8.90;;
31716;SDS011;18301;51.076;17.046;2022-12-08T08:54:57;14.15;;;7.97;;
31716;SDS011;18301;51.076;17.046;2022-12-08T08:59:58;13.05;;;7.45;;
31716;SDS011;18301;51.076;17.046;2022-12-08T09:05:00;12.73;;;8.02;;
31716;SDS011;18301;51.076;17.046;2022-12-08T09:10:02;13.82;;;7.93;;
31716;SDS011;18301;51.076;17.046;2022-12-08T09:15:04;12.23;;;7.28;;
31716;SDS011;18301;51.076;17.046;2022-12-08T09:20:06;11.85;;;7.70;;
31716;SDS011;18301;51.076;17.046;2022-12-08T09:25:08;13.38;;;7.70;;
31716;SDS011;18301;51.076;17.046;2022-12-08T09:30:10;10.73;;;6.90;;
31716;SDS011;18301;51.076;17.046;2022-12-08T09:35:12;12.60;;;7.60;;
31716;SDS011;18301;51.076;17.046;2022-12-08T09:40:14;12.98;;;8.10;;
31716;SDS011;18301;51.076;17.046;2022-12-08T09:45:19;13.38;;;7.85;;
31716;SDS011;18301;51.076;17.046;2022-12-08T09:50:37;11.90;;;7.15;;
31716;SDS011;18301;51.076;17.046;2022-12-08T09:55:54;14.80;;;7.50;;
31716;SDS011;18301;51.076;17.046;2022-12-08T10:00:59;15.13;;;8.10;;
31716;SDS011;18301;51.076;17.046;2022-12-08T10:06:24;12.77;;;8.25;;
31716;SDS011;18301;51.076;17.046;2022-12-08T10:11:31;14.52;;;7.47;;
31716;SDS011;18301;51.076;17.046;2022-12-08T10:16:41;17.27;;;8.63;;
31716;SDS011;18301;51.076;17.046;2022-12-08T10:21:48;15.10;;;7.65;;
31716;SDS011;18301;51.076;17.046;2022-12-08T10:26:51;13.10;;;7.82;;
31716;SDS011;18301;51.076;17.046;2022-12-08T10:31:57;11.00;;;7.18;;
31716;SDS011;18301;51.076;17.046;2022-12-08T10:36:59;16.00;;;8.35;;
31716;SDS011;18301;51.076;17.046;2022-12-08T10:47:14;13.80;;;8.10;;
31716;SDS011;18301;51.076;17.046;2022-12-08T10:52:23;12.75;;;6.80;;
31716;SDS011;18301;51.076;17.046;2022-12-08T10:57:25;10.87;;;6.43;;
31716;SDS011;18301;51.076;17.046;2022-12-08T11:02:26;8.73;;;5.80;;
31716;SDS011;18301;51.076;17.046;2022-12-08T11:07:28;9.63;;;6.78;;
31716;SDS011;18301;51.076;17.046;2022-12-08T11:12:30;11.82;;;6.45;;
31716;SDS011;18301;51.076;17.046;2022-12-08T11:17:35;10.40;;;6.43;;
31716;SDS011;18301;51.076;17.046;2022-12-08T11:22:40;10.80;;;6.95;;
31716;SDS011;18301;51.076;17.046;2022-12-08T11:27:44;11.88;;;7.28;;
31716;SDS011;18301;51.076;17.046;2022-12-08T11:38:21;12.40;;;7.25;;
31716;SDS011;18301;51.076;17.046;2022-12-08T11:48:45;12.20;;;7.18;;
31716;SDS011;18301;51.076;17.046;2022-12-08T12:09:50;12.70;;;8.10;;
31716;SDS011;18301;51.076;17.046;2022-12-08T12:20:24;13.30;;;7.57;;
31716;SDS011;18301;51.076;17.046;2022-12-08T12:25:30;11.10;;;7.50;;
31716;SDS011;18301;51.076;17.046;2022-12-08T12:30:57;12.38;;;7.38;;
31716;SDS011;18301;51.076;17.046;2022-12-08T12:36:03;23.17;;;11.70;;
31716;SDS011;18301;51.076;17.046;2022-12-08T12:41:08;16.73;;;8.85;;
31716;SDS011;18301;51.076;17.046;2022-12-08T12:56:48;10.93;;;7.28;;
31716;SDS011;18301;51.076;17.046;2022-12-08T13:01:55;9.38;;;5.85;;
31716;SDS011;18301;51.076;17.046;2022-12-08T13:06:57;10.73;;;6.82;;
31716;SDS011;18301;51.076;17.046;2022-12-08T13:12:06;13.45;;;7.05;;
31716;SDS011;18301;51.076;17.046;2022-12-08T13:17:11;12.50;;;6.07;;
31716;SDS011;18301;51.076;17.046;2022-12-08T13:27:51;10.40;;;6.75;;
31716;SDS011;18301;51.076;17.046;2022-12-08T13:32:54;11.85;;;7.35;;
31716;SDS011;18301;51.076;17.046;2022-12-08T13:38:20;11.80;;;7.65;;
31716;SDS011;18301;51.076;17.046;2022-12-08T13:43:43;10.43;;;6.72;;
31716;SDS011;18301;51.076;17.046;2022-12-08T13:49:10;13.38;;;7.93;;
31716;SDS011;18301;51.076;17.046;2022-12-08T13:54:39;12.98;;;8.35;;
31716;SDS011;18301;51.076;17.046;2022-12-08T14:00:04;13.25;;;7.00;;
31716;SDS011;18301;51.076;17.046;2022-12-08T14:05:16;14.82;;;8.63;;
31716;SDS011;18301;51.076;17.046;2022-12-08T14:10:40;14.32;;;8.00;;
31716;SDS011;18301;51.076;17.046;2022-12-08T14:15:42;14.50;;;9.40;;
31716;SDS011;18301;51.076;17.046;2022-12-08T14:20:43;15.15;;;9.55;;
31716;SDS011;18301;51.076;17.046;2022-12-08T14:26:05;17.08;;;9.73;;
31716;SDS011;18301;51.076;17.046;2022-12-08T14:31:07;17.67;;;9.70;;
31716;SDS011;18301;51.076;17.046;2022-12-08T14:36:09;16.50;;;9.90;;
31716;SDS011;18301;51.076;17.046;2022-12-08T14:41:15;24.30;;;11.27;;
31716;SDS011;18301;51.076;17.046;2022-12-08T14:46:27;22.77;;;11.88;;
31716;SDS011;18301;51.076;17.046;2022-12-08T14:51:29;21.48;;;12.15;;
31716;SDS011;18301;51.076;17.046;2022-12-08T14:56:37;28.48;;;15.18;;
31716;SDS011;18301;51.076;17.046;2022-12-08T15:01:42;32.85;;;16.85;;
31716;SDS011;18301;51.076;17.046;2022-12-08T15:06:46;30.50;;;16.20;;
31716;SDS011;18301;51.076;17.046;2022-12-08T15:12:18;37.20;;;18.10;;
31716;SDS011;18301;51.076;17.046;2022-12-08T15:17:32;49.50;;;21.08;;
31716;SDS011;18301;51.076;17.046;2022-12-08T15:22:36;44.35;;;21.10;;
31716;SDS011;18301;51.076;17.046;2022-12-08T15:27:37;39.70;;;17.60;;
31716;SDS011;18301;51.076;17.046;2022-12-08T15:32:51;37.20;;;17.98;;
31716;SDS011;18301;51.076;17.046;2022-12-08T15:37:54;23.30;;;13.43;;
31716;SDS011;18301;51.076;17.046;2022-12-08T15:42:56;26.65;;;13.73;;
31716;SDS011;18301;51.076;17.046;2022-12-08T15:47:57;32.45;;;14.93;;
31716;SDS011;18301;51.076;17.046;2022-12-08T15:52:59;35.22;;;17.65;;
31716;SDS011;18301;51.076;17.046;2022-12-08T15:58:01;32.35;;;16.90;;
31716;SDS011;18301;51.076;17.046;2022-12-08T16:03:24;31.58;;;15.75;;
31716;SDS011;18301;51.076;17.046;2022-12-08T16:08:50;27.52;;;15.18;;
31716;SDS011;18301;51.076;17.046;2022-12-08T16:14:12;36.58;;;17.13;;
31716;SDS011;18301;51.076;17.046;2022-12-08T16:19:33;35.97;;;18.05;;
31716;SDS011;18301;51.076;17.046;2022-12-08T16:24:35;33.65;;;16.40;;
31716;SDS011;18301;51.076;17.046;2022-12-08T16:29:36;33.15;;;16.75;;
31716;SDS011;18301;51.076;17.046;2022-12-08T16:34:38;31.02;;;16.83;;
31716;SDS011;18301;51.076;17.046;2022-12-08T16:39:40;44.28;;;20.35;;
31716;SDS011;18301;51.076;17.046;2022-12-08T16:44:46;51.35;;;22.00;;
31716;SDS011;18301;51.076;17.046;2022-12-08T16:49:47;40.55;;;19.55;;
31716;SDS011;18301;51.076;17.046;2022-12-08T16:54:49;40.13;;;19.02;;
31716;SDS011;18301;51.076;17.046;2022-12-08T16:59:51;42.13;;;19.08;;
31716;SDS011;18301;51.076;17.046;2022-12-08T17:04:52;37.05;;;18.52;;
31716;SDS011;18301;51.076;17.046;2022-12-08T17:09:54;36.78;;;19.33;;
31716;SDS011;18301;51.076;17.046;2022-12-08T17:14:55;40.20;;;19.35;;
31716;SDS011;18301;51.076;17.046;2022-12-08T17:19:57;39.75;;;19.00;;
31716;SDS011;18301;51.076;17.046;2022-12-08T17:24:59;47.53;;;22.27;;
31716;SDS011;18301;51.076;17.046;2022-12-08T17:30:01;41.60;;;20.25;;
31716;SDS011;18301;51.076;17.046;2022-12-08T17:35:03;35.58;;;16.77;;
31716;SDS011;18301;51.076;17.046;2022-12-08T17:40:06;29.98;;;15.93;;
31716;SDS011;18301;51.076;17.046;2022-12-08T17:45:08;34.88;;;16.67;;
31716;SDS011;18301;51.076;17.046;2022-12-08T17:50:11;33.78;;;16.08;;
31716;SDS011;18301;51.076;17.046;2022-12-08T17:55:12;34.97;;;17.42;;
31716;SDS011;18301;51.076;17.046;2022-12-08T18:00:14;33.22;;;17.80;;
31716;SDS011;18301;51.076;17.046;2022-12-08T18:05:16;38.35;;;19.98;;
31716;SDS011;18301;51.076;17.046;2022-12-08T18:10:18;33.70;;;17.88;;
31716;SDS011;18301;51.076;17.046;2022-12-08T18:15:20;39.67;;;19.50;;
31716;SDS011;18301;51.076;17.046;2022-12-08T18:20:22;31.27;;;16.10;;
31716;SDS011;18301;51.076;17.046;2022-12-08T18:25:23;32.28;;;16.40;;
31716;SDS011;18301;51.076;17.046;2022-12-08T18:30:25;32.20;;;16.42;;
31716;SDS011;18301;51.076;17.046;2022-12-08T18:35:27;34.88;;;18.08;;
31716;SDS011;18301;51.076;17.046;2022-12-08T18:40:29;40.75;;;20.20;;
31716;SDS011;18301;51.076;17.046;2022-12-08T18:45:30;42.10;;;19.92;;
31716;SDS011;18301;51.076;17.046;2022-12-08T18:50:32;69.75;;;34.47;;
31716;SDS011;18301;51.076;17.046;2022-12-08T18:55:35;46.40;;;23.98;;
31716;SDS011;18301;51.076;17.046;2022-12-08T19:00:37;43.78;;;21.80;;
31716;SDS011;18301;51.076;17.046;2022-12-08T19:05:39;41.15;;;21.02;;
31716;SDS011;18301;51.076;17.046;2022-12-08T19:10:41;38.72;;;19.05;;
31716;SDS011;18301;51.076;17.046;2022-12-08T19:15:42;34.35;;;17.27;;
31716;SDS011;18301;51.076;17.046;2022-12-08T19:20:44;38.97;;;18.67;;
31716;SDS011;18301;51.076;17.046;2022-12-08T19:25:45;32.08;;;17.13;;
31716;SDS011;18301;51.076;17.046;2022-12-08T19:30:47;33.65;;;17.35;;
31716;SDS011;18301;51.076;17.046;2022-12-08T19:35:49;32.38;;;16.55;;
31716;SDS011;18301;51.076;17.046;2022-12-08T19:40:53;29.60;;;15.30;;
31716;SDS011;18301;51.076;17.046;2022-12-08T19:46:13;28.02;;;14.90;;
31716;SDS011;18301;51.076;17.046;2022-12-08T19:51:15;27.38;;;14.55;;
31716;SDS011;18301;51.076;17.046;2022-12-08T19:56:16;32.05;;;14.35;;
31716;SDS011;18301;51.076;17.046;2022-12-08T20:01:18;23.80;;;12.35;;
31716;SDS011;18301;51.076;17.046;2022-12-08T20:06:20;25.60;;;12.82;;
31716;SDS011;18301;51.076;17.046;2022-12-08T20:11:23;24.55;;;13.32;;
31716;SDS011;18301;51.076;17.046;2022-12-08T20:16:24;24.85;;;13.32;;
31716;SDS011;18301;51.076;17.046;2022-12-08T20:21:26;27.25;;;14.05;;
31716;SDS011;18301;51.076;17.046;2022-12-08T20:26:29;25.75;;;13.63;;
31716;SDS011;18301;51.076;17.046;2022-12-08T20:31:31;34.40;;;15.43;;
31716;SDS011;18301;51.076;17.046;2022-12-08T20:36:33;34.00;;;16.88;;
31716;SDS011;18301;51.076;17.046;2022-12-08T20:41:35;31.58;;;15.52;;
31716;SDS011;18301;51.076;17.046;2022-12-08T20:46:39;31.75;;;15.68;;
31716;SDS011;18301;51.076;17.046;2022-12-08T20:51:47;28.90;;;15.07;;
31716;SDS011;18301;51.076;17.046;2022-12-08T20:56:50;30.30;;;15.63;;
31716;SDS011;18301;51.076;17.046;2022-12-08T21:01:52;30.23;;;15.38;;
31716;SDS011;18301;51.076;17.046;2022-12-08T21:06:54;31.58;;;15.65;;
31716;SDS011;18301;51.076;17.046;2022-12-08T21:11:56;32.05;;;15.57;;
31716;SDS011;18301;51.076;17.046;2022-12-08T21:16:57;32.67;;;15.88;;
31716;SDS011;18301;51.076;17.046;2022-12-08T21:21:59;30.90;;;16.20;;
31716;SDS011;18301;51.076;17.046;2022-12-08T21:27:01;28.92;;;14.65;;
31716;SDS011;18301;51.076;17.046;2022-12-08T21:32:03;26.63;;;14.95;;
31716;SDS011;18301;51.076;17.046;2022-12-08T21:37:05;31.17;;;15.75;;
31716;SDS011;18301;51.076;17.046;2022-12-08T21:42:06;28.95;;;15.23;;
31716;SDS011;18301;51.076;17.046;2022-12-08T21:47:34;39.63;;;17.27;;
31716;SDS011;18301;51.076;17.046;2022-12-08T21:52:37;31.45;;;16.02;;
31716;SDS011;18301;51.076;17.046;2022-12-08T21:57:39;37.75;;;17.08;;
31716;SDS011;18301;51.076;17.046;2022-12-08T22:02:41;41.42;;;17.95;;
31716;SDS011;18301;51.076;17.046;2022-12-08T22:07:43;38.22;;;17.60;;
31716;SDS011;18301;51.076;17.046;2022-12-08T22:12:45;36.90;;;16.90;;
31716;SDS011;18301;51.076;17.046;2022-12-08T22:17:47;35.40;;;16.55;;
31716;SDS011;18301;51.076;17.046;2022-12-08T22:22:49;38.38;;;17.58;;
31716;SDS011;18301;51.076;17.046;2022-12-08T22:27:50;32.58;;;15.77;;
31716;SDS011;18301;51.076;17.046;2022-12-08T22:32:52;32.33;;;15.43;;
31716;SDS011;18301;51.076;17.046;2022-12-08T22:37:54;32.13;;;15.23;;
31716;SDS011;18301;51.076;17.046;2022-12-08T22:42:56;34.60;;;16.88;;
31716;SDS011;18301;51.076;17.046;2022-12-08T22:47:57;35.30;;;17.58;;
31716;SDS011;18301;51.076;17.046;2022-12-08T22:52:59;35.10;;;16.35;;
31716;SDS011;18301;51.076;17.046;2022-12-08T22:58:01;33.42;;;16.17;;
31716;SDS011;18301;51.076;17.046;2022-12-08T23:03:03;33.88;;;15.88;;
31716;SDS011;18301;51.076;17.046;2022-12-08T23:08:06;31.48;;;16.08;;
31716;SDS011;18301;51.076;17.046;2022-12-08T23:13:09;38.00;;;16.98;;
31716;SDS011;18301;51.076;17.046;2022-12-08T23:18:15;30.08;;;15.98;;
31716;SDS011;18301;51.076;17.046;2022-12-08T23:23:20;32.87;;;16.47;;
31716;SDS011;18301;51.076;17.046;2022-12-08T23:34:37;29.92;;;15.63;;
31716;SDS011;18301;51.076;17.046;2022-12-08T23:39:39;30.25;;;14.35;;
31716;SDS011;18301;51.076;17.046;2022-12-08T23:44:41;27.83;;;14.88;;
31716;SDS011;18301;51.076;17.046;2022-12-08T23:49:43;30.15;;;15.70;;
31716;SDS011;18301;51.076;17.046;2022-12-08T23:54:45;28.52;;;14.68;;
31716;SDS011;18301;51.076;17.046;2022-12-08T23:59:50;30.75;;;16.00;;
